Saturday, July 02, 2016
07:27 UTC
  |  Log In   |  Register Free
Airport Search:

Jackson-Medgar Wiley Evers International Airport
(KJAN)

FAA data valid effective May 26 2016 - Jul 21 2016 (unless otherwise noted).

 
 
 
 
 
 
 
 
 
 
 
 
 
 
Current Aviation Weather for KJAN

Weather Summary


The most recent METAR observation for JAN was updated at: 13:03 UTC
METAR for KJAN is not available. Closest METAR is for KHKS
KJAN  (most recent observation was updatred at 20:65 UTC)
020654Z AUTO 00000KT 10SM CLR 24/22 A3001 RMK AO2 SLP155 T02440222

KHKS  (7.6 nm SE)   (most recent observation was updated at 20:65 UTC)
020653Z AUTO 00000KT 10SM CLR 25/22 A3001 RMK AO2 SLP155 T02500217

KMBO  (7.8 nm SE)   (most recent observation was updated at 20:71 UTC)
020715Z AUTO 00000KT 10SM CLR 23/21 A3001 RMK AO2 PWINO

TAF for KJAN is not available.
KJAN
020526Z 0206/0306 00000KT P6SM SKC FM021400 33005KT P6SM SCT050

KHKS  (7.6 nm SE)   (most recent observation was updatred at 20:52 UTC)
020526Z 0206/0306 00000KT P6SM SKC FM021400 33005KT P6SM SCT050
GlobalAir.com is loading additional information.
 Current Weather at JAN
78.0 F° (25.6 C°)

North winds at 0.0 mph
Pressure:
30.02 in
Humidity:
79%
Wind:
North at 0.0 mph
Dew Point:
71.1 F° (21.7 C°)
Visibility:
10.00 mi
JAN NOAA Radar




Find All Airport Services Find A Hotel Find A Rental Car Find A Golf Course Find A Restaurant $100 Hamburger



Airport Weather Forecast for KJAN

Translated METAR for KJAN (0654 UTC)
METAR:
KJAN 020654Z AUTO 00000KT 10SM CLR 24/22 A3001 RMK AO2 SLP155 T02440222
Conditions at:
KJAN (Jackson-Medgar Wiley Evers Intl, MS) observed 0654 UTC 02 July 2016
Temperature:
24°C (75.2°F)
Dewpoint:
22°C (71.6°F) [RH = 88.6]
Pressure:
30.01 inches Hg (1016.3 mb)
pressure at sea level is 155 in Hg
Winds:
from the N (000 degrees) at 0 mph (0 knots: 0 m/s)
Visibility:
10 mile(s)
Ceiling:
at least 12,000 feet AGL
Clouds:
Clear below 12,000 feet AGL
Remarks:
site is un-manned
site is automated and HAS a precipitation sensor

Translated TAF for KJAN (Jackson-Medgar Wiley Evers Intl, MS) (0526 UTC)
TAF text:
KJAN 020526Z 0206/0306 00000KT P6SM SKC
Forecast period:
Saturday Jul 02 2016 06:00 UTC - Sunday Jul 03 2016 06:00 UTC
Forecast type:
FROM: standard forecast or significant change
Winds:
from the N (000 degrees) at 0 mph (0 knots: 0 m/s)
Visibility:
6 or more mile(s) (9.7+ km)
Ceiling:
at least 12,000 feet AGL
Clouds:
Clear Skies
Weather:
no significant weather observed at this time
TAF text:
FM021400 33005KT P6SM SCT050
Forecast period:
Saturday Jul 02 2016 14:00 UTC - Sunday Jul 03 2016 06:00 UTC
Forecast type:
FROM: standard forecast or significant change
Winds:
from the NNW (330 degrees) at 5.8 mph (5 knots: 2.6 m/s)
Visibility:
6 or more mile(s) (9.7+ km)
Ceiling:
at least 12,000 feet AGL
Clouds:
Scattered Clouds at 5,000 feet AGL
Weather:
no significant weather observed at this time
FBO's on the Field
FBO Company Facility Photos Services Transportation Aviation Fuel Prices: Prices include tax
Catering Weather Repair Courtesy Rental Type 100LL JetA JetA+ MOGAS 8087
 
Atlantic Aviation - JAN

Currently rated 5 by 1 person
FS:Independent
Last Updated: Jul-01
Login to update fuel prices
SS:
Contact Atlantic Aviation - JANMore FBO Information
 
Add another FBO Facility Photos Catering Weather Repair Courtesy Rental Type 100LL JetA JetA+ MOGAS 8087
Services Transportation Aviation Fuel Prices: Prices include tax


model-print
model-print
model-print
model-print